createdAt,value
2019-02-14T00:00:40.806Z,60.30
2019-02-14T00:01:19.485Z,60.40
2019-02-14T00:01:58.149Z,60.30
2019-02-14T00:02:36.904Z,60.30
2019-02-14T00:03:15.605Z,60.40
2019-02-14T00:03:54.384Z,60.60
2019-02-14T00:04:33.131Z,60.50
2019-02-14T00:05:16.401Z,60.60
2019-02-14T00:05:51.824Z,60.60
2019-02-14T00:06:30.532Z,60.70
2019-02-14T00:07:09.287Z,60.60
2019-02-14T00:07:47.988Z,60.60
2019-02-14T00:08:26.753Z,60.80
2019-02-14T00:09:06.930Z,61.50
2019-02-14T00:09:45.661Z,60.90
2019-02-14T00:10:24.425Z,61.00
2019-02-14T00:11:03.160Z,61.00
2019-02-14T00:11:41.877Z,61.00
2019-02-14T00:12:20.581Z,61.00
2019-02-14T00:12:59.218Z,61.20
2019-02-14T00:13:38.073Z,61.30
2019-02-14T00:14:16.829Z,61.30
2019-02-14T00:14:55.556Z,61.40
2019-02-14T00:15:34.285Z,61.50
2019-02-14T00:16:13.050Z,61.70
2019-02-14T00:16:51.781Z,61.60
2019-02-14T00:17:30.470Z,61.60
2019-02-14T00:18:09.221Z,61.70
2019-02-14T00:18:47.856Z,61.70
2019-02-14T00:19:26.600Z,61.80
2019-02-14T00:20:05.402Z,62.00
2019-02-14T00:20:44.008Z,62.00
2019-02-14T00:21:22.819Z,62.00
2019-02-14T00:22:01.560Z,62.10
2019-02-14T00:22:40.162Z,62.10
2019-02-14T00:23:18.871Z,62.10
2019-02-14T00:23:57.601Z,62.10
2019-02-14T00:24:36.330Z,62.20
2019-02-14T00:25:14.930Z,62.30
2019-02-14T00:25:53.639Z,62.40
2019-02-14T00:26:32.408Z,62.60
2019-02-14T00:27:11.124Z,62.50
2019-02-14T00:27:49.975Z,62.60
2019-02-14T00:28:28.638Z,62.50
2019-02-14T00:29:07.368Z,62.60
2019-02-14T00:29:46.091Z,62.60
2019-02-14T00:30:24.815Z,62.70
2019-02-14T00:31:03.664Z,62.80
2019-02-14T00:31:42.277Z,63.00
2019-02-14T00:32:20.966Z,62.90
2019-02-14T00:32:59.753Z,63.10
2019-02-14T00:33:38.525Z,63.00
2019-02-14T00:34:17.212Z,63.00
2019-02-14T00:34:55.963Z,63.40
2019-02-14T00:35:34.672Z,63.50
2019-02-14T00:36:13.313Z,63.50
2019-02-14T00:36:52.094Z,63.40
2019-02-14T00:37:30.886Z,63.40
2019-02-14T00:38:09.590Z,63.50
2019-02-14T00:38:48.375Z,63.60
2019-02-14T00:39:27.070Z,63.80
2019-02-14T00:40:05.764Z,63.90
2019-02-14T00:40:44.514Z,63.90
2019-02-14T00:41:23.184Z,63.90
2019-02-14T00:42:01.897Z,64.10
2019-02-14T00:42:40.510Z,64.00
2019-02-14T00:43:19.142Z,64.20
2019-02-14T00:43:57.786Z,64.30
2019-02-14T00:44:36.432Z,64.40
2019-02-14T00:45:15.185Z,64.50
2019-02-14T00:45:54.009Z,64.60
2019-02-14T00:46:32.727Z,64.70
2019-02-14T00:47:11.358Z,64.80
2019-02-14T00:47:50.160Z,64.70
2019-02-14T00:48:28.923Z,64.80
2019-02-14T00:49:07.597Z,64.80
2019-02-14T00:49:46.289Z,65.20
2019-02-14T00:50:25.043Z,65.10
2019-02-14T00:51:03.725Z,65.40
2019-02-14T00:51:42.447Z,65.40
2019-02-14T00:52:21.311Z,65.20
2019-02-14T00:52:59.962Z,65.70
2019-02-14T00:53:38.676Z,65.60
2019-02-14T00:54:17.674Z,65.60
2019-02-14T00:54:56.364Z,65.50
2019-02-14T00:55:35.093Z,65.70
2019-02-14T00:56:14.737Z,65.70
2019-02-14T00:56:53.411Z,66.00
2019-02-14T00:57:32.034Z,65.90
2019-02-14T00:58:10.878Z,66.10
2019-02-14T00:58:49.590Z,66.00
2019-02-14T00:59:28.358Z,65.90
2019-02-14T01:00:07.242Z,65.90
2019-02-14T01:00:45.927Z,66.20
2019-02-14T01:01:24.590Z,66.10
2019-02-14T01:02:03.300Z,66.20
2019-02-14T01:02:41.972Z,66.40
2019-02-14T01:03:20.627Z,66.30
2019-02-14T01:03:59.386Z,66.40
2019-02-14T01:04:38.097Z,66.40
2019-02-14T01:05:16.854Z,66.50
2019-02-14T01:05:55.572Z,66.70
2019-02-14T01:06:34.233Z,66.70
2019-02-14T01:07:12.929Z,66.70
2019-02-14T01:07:51.569Z,66.90
2019-02-14T01:08:30.320Z,67.10
2019-02-14T01:09:09.463Z,67.00
2019-02-14T01:09:48.242Z,67.00
2019-02-14T01:10:26.969Z,67.00
2019-02-14T01:11:05.659Z,67.20
2019-02-14T01:11:44.291Z,67.20
2019-02-14T01:12:23.062Z,67.20
2019-02-14T01:13:01.767Z,67.10
2019-02-14T01:13:40.453Z,67.10
2019-02-14T01:14:19.200Z,67.20
2019-02-14T01:14:57.955Z,67.30
2019-02-14T01:15:36.680Z,67.40
2019-02-14T01:16:18.965Z,67.40
2019-02-14T01:16:57.728Z,67.40
2019-02-14T01:17:36.384Z,67.30
2019-02-14T01:18:15.064Z,67.40
2019-02-14T01:18:53.797Z,67.50
2019-02-14T01:19:32.424Z,67.50
2019-02-14T01:20:11.146Z,67.40
2019-02-14T01:20:49.903Z,67.40
2019-02-14T01:21:28.513Z,67.40
2019-02-14T01:22:07.207Z,67.40
2019-02-14T01:22:45.932Z,67.40
2019-02-14T01:23:24.684Z,67.30
2019-02-14T01:24:03.420Z,67.40
2019-02-14T01:24:42.089Z,67.40
2019-02-14T01:25:21.073Z,67.40
2019-02-14T01:25:59.739Z,67.40
2019-02-14T01:26:38.473Z,67.20
2019-02-14T01:27:17.190Z,67.20
2019-02-14T01:27:55.812Z,67.50
2019-02-14T01:28:34.625Z,67.50
2019-02-14T01:29:13.374Z,67.30
2019-02-14T01:29:52.104Z,67.40
2019-02-14T01:30:30.883Z,67.50
2019-02-14T01:31:09.679Z,67.50
2019-02-14T01:31:48.250Z,67.50
2019-02-14T01:32:27.114Z,67.50
2019-02-14T01:33:05.869Z,67.50
2019-02-14T01:33:44.494Z,67.40
2019-02-14T01:34:23.161Z,67.50
2019-02-14T01:35:01.842Z,67.50
2019-02-14T01:35:41.949Z,67.50
2019-02-14T01:36:20.525Z,67.60
2019-02-14T01:36:59.240Z,67.70
2019-02-14T01:37:37.954Z,67.60
2019-02-14T01:38:16.688Z,67.70
2019-02-14T01:38:55.365Z,67.50
2019-02-14T01:39:34.389Z,67.60
2019-02-14T01:40:13.158Z,67.50
2019-02-14T01:40:51.970Z,67.70
2019-02-14T01:41:30.691Z,67.70
2019-02-14T01:42:09.427Z,67.80
2019-02-14T01:42:48.229Z,67.70
2019-02-14T01:43:26.921Z,67.70
2019-02-14T01:44:05.598Z,67.70
2019-02-14T01:44:44.409Z,67.70
2019-02-14T01:45:23.244Z,67.80
2019-02-14T01:46:01.997Z,67.70
2019-02-14T01:46:40.682Z,67.70
2019-02-14T01:47:19.349Z,67.70
2019-02-14T01:47:57.977Z,67.70
2019-02-14T01:48:36.733Z,67.70
2019-02-14T01:49:15.364Z,67.70
2019-02-14T01:49:54.009Z,67.80
2019-02-14T01:50:32.677Z,67.80
2019-02-14T01:51:11.348Z,67.90
2019-02-14T01:51:50.303Z,67.90
2019-02-14T01:52:28.901Z,67.80
2019-02-14T01:53:07.531Z,67.70
2019-02-14T01:53:46.229Z,67.70
2019-02-14T01:54:25.018Z,67.90
2019-02-14T01:55:03.683Z,67.80
2019-02-14T01:55:42.418Z,67.80
2019-02-14T01:56:21.080Z,68.50
2019-02-14T01:56:59.811Z,67.70
2019-02-14T01:57:38.508Z,67.90
2019-02-14T01:58:17.202Z,67.90
2019-02-14T01:58:55.871Z,67.90
2019-02-14T01:59:34.533Z,67.90
2019-02-14T02:00:16.074Z,68.10
2019-02-14T02:00:54.804Z,67.90
2019-02-14T02:01:33.571Z,68.20
2019-02-14T02:02:12.382Z,68.10
2019-02-14T02:02:51.130Z,68.10
2019-02-14T02:03:29.907Z,68.00
2019-02-14T02:04:10.070Z,68.00
2019-02-14T02:04:48.890Z,67.90
2019-02-14T02:05:27.718Z,68.00
2019-02-14T02:06:06.479Z,67.90
2019-02-14T02:06:45.058Z,68.00
2019-02-14T02:07:23.721Z,68.00
2019-02-14T02:08:02.476Z,68.10
2019-02-14T02:08:41.188Z,68.00
2019-02-14T02:09:19.876Z,68.00
2019-02-14T02:09:58.520Z,68.00
2019-02-14T02:10:37.142Z,68.10
2019-02-14T02:11:15.917Z,67.90
2019-02-14T02:11:54.608Z,67.90
2019-02-14T02:12:33.213Z,68.10
2019-02-14T02:13:11.976Z,68.20
2019-02-14T02:13:50.679Z,68.20
2019-02-14T02:14:29.354Z,68.10
2019-02-14T02:15:08.238Z,68.90
2019-02-14T02:15:46.947Z,68.10
2019-02-14T02:16:25.865Z,68.20
2019-02-14T02:17:04.582Z,68.00
2019-02-14T02:17:43.382Z,68.10
2019-02-14T02:18:22.547Z,68.20
2019-02-14T02:19:01.302Z,68.20
2019-02-14T02:19:39.942Z,68.20
2019-02-14T02:20:18.564Z,68.20
2019-02-14T02:20:57.442Z,68.10
2019-02-14T02:21:36.055Z,68.10
2019-02-14T02:22:15.376Z,68.20
2019-02-14T02:22:54.080Z,68.20
2019-02-14T02:23:32.688Z,68.10
2019-02-14T02:24:11.398Z,68.10
2019-02-14T02:24:50.037Z,68.10
2019-02-14T02:25:28.673Z,68.10
2019-02-14T02:26:07.447Z,68.10
2019-02-14T02:26:46.213Z,68.10
2019-02-14T02:27:24.819Z,68.00
2019-02-14T02:28:03.560Z,68.00
2019-02-14T02:28:42.189Z,68.10
2019-02-14T02:29:20.914Z,68.20
2019-02-14T02:29:59.700Z,68.10
2019-02-14T02:30:39.897Z,68.20
2019-02-14T02:31:18.720Z,68.20
2019-02-14T02:33:40.607Z,68.20
2019-02-14T02:34:19.267Z,68.20
2019-02-14T02:34:57.960Z,68.30
2019-02-14T02:35:36.639Z,68.30
2019-02-14T02:36:15.443Z,68.40
2019-02-14T02:36:54.139Z,68.30
2019-02-14T02:37:33.310Z,68.30
2019-02-14T02:38:12.017Z,68.40
2019-02-14T02:38:50.948Z,68.30
2019-02-14T02:39:29.718Z,68.20
2019-02-14T02:40:08.738Z,68.30
2019-02-14T02:40:47.355Z,68.30
2019-02-14T02:41:26.049Z,68.30
2019-02-14T02:42:04.792Z,68.20
2019-02-14T02:42:43.509Z,68.40
2019-02-14T02:43:22.206Z,68.40
2019-02-14T02:44:00.855Z,68.30
2019-02-14T02:44:39.495Z,68.30
2019-02-14T02:45:18.212Z,68.30
2019-02-14T02:45:57.130Z,68.50
2019-02-14T02:46:36.546Z,68.30
2019-02-14T02:47:15.887Z,68.40
2019-02-14T02:47:54.571Z,68.40
2019-02-14T02:48:33.842Z,68.30
2019-02-14T02:49:13.297Z,68.30
2019-02-14T02:49:52.106Z,68.30
2019-02-14T02:50:31.267Z,68.50
2019-02-14T02:51:11.589Z,68.40
2019-02-14T02:51:50.233Z,68.50
2019-02-14T02:52:28.938Z,68.40
2019-02-14T02:53:08.423Z,68.40
2019-02-14T02:53:47.587Z,68.30
2019-02-14T02:54:26.474Z,68.30
2019-02-14T02:55:05.752Z,68.30
2019-02-14T02:55:45.280Z,68.30
2019-02-14T02:56:24.587Z,68.50
2019-02-14T02:57:03.294Z,68.50
2019-02-14T02:57:42.801Z,68.20
2019-02-14T02:58:21.580Z,68.40
2019-02-14T02:59:01.009Z,68.20
2019-02-14T02:59:39.863Z,68.20
2019-02-14T03:00:19.919Z,68.30
2019-02-14T03:00:58.619Z,68.30
2019-02-14T03:01:37.594Z,68.30
2019-02-14T03:02:16.245Z,68.30
2019-02-14T03:02:55.214Z,68.30
2019-02-14T03:03:34.754Z,68.40
2019-02-14T03:04:14.342Z,68.40
2019-02-14T03:04:53.049Z,68.30
2019-02-14T03:05:31.676Z,68.30
2019-02-14T03:06:11.036Z,68.40
2019-02-14T03:06:49.987Z,68.30
2019-02-14T03:07:30.231Z,68.30
2019-02-14T03:08:09.239Z,68.30
2019-02-14T03:08:47.926Z,68.30
2019-02-14T03:09:27.413Z,68.20
2019-02-14T03:10:06.058Z,68.20
2019-02-14T03:10:45.170Z,68.40
2019-02-14T03:11:24.094Z,68.40
2019-02-14T03:12:02.912Z,68.40
2019-02-14T03:12:41.629Z,68.30
2019-02-14T03:13:20.445Z,68.40
2019-02-14T03:13:59.456Z,68.30
2019-02-14T03:14:38.882Z,68.20
2019-02-14T03:15:18.538Z,68.20
2019-02-14T03:15:58.079Z,68.20
2019-02-14T03:16:37.451Z,68.20
2019-02-14T03:17:16.217Z,68.20
2019-02-14T03:17:55.006Z,68.20
2019-02-14T03:18:33.793Z,68.20
2019-02-14T03:19:12.431Z,68.30
2019-02-14T03:19:51.123Z,68.30
2019-02-14T03:20:30.313Z,68.30
2019-02-14T03:21:09.509Z,68.20
2019-02-14T03:21:48.967Z,68.20
2019-02-14T03:22:28.081Z,68.30
2019-02-14T03:23:07.389Z,68.20
2019-02-14T03:23:46.608Z,68.20
2019-02-14T03:24:25.899Z,68.10
2019-02-14T03:25:04.644Z,68.20
2019-02-14T03:25:43.359Z,68.10
2019-02-14T03:26:22.076Z,68.80
2019-02-14T03:27:00.797Z,68.10
2019-02-14T03:27:39.837Z,68.10
2019-02-14T03:28:19.246Z,68.00
2019-02-14T03:28:58.684Z,68.00
2019-02-14T03:29:37.405Z,68.00
2019-02-14T03:30:16.597Z,68.10
2019-02-14T03:30:55.927Z,68.90
2019-02-14T03:31:34.929Z,68.10
2019-02-14T03:32:14.290Z,68.00
2019-02-14T03:32:53.616Z,68.10
2019-02-14T03:33:32.256Z,68.10
2019-02-14T03:34:11.223Z,68.00
2019-02-14T03:34:51.627Z,68.00
2019-02-14T03:35:30.367Z,68.00
2019-02-14T03:36:09.317Z,68.00
2019-02-14T03:36:48.504Z,68.00
2019-02-14T03:37:27.263Z,67.90
2019-02-14T03:38:06.116Z,67.90
2019-02-14T03:38:45.109Z,67.90
2019-02-14T03:39:24.333Z,67.90
2019-02-14T03:40:03.259Z,68.70
2019-02-14T03:40:42.158Z,67.80
2019-02-14T03:41:21.424Z,67.80
2019-02-14T03:42:00.182Z,67.80
2019-02-14T03:42:39.016Z,67.90
2019-02-14T03:43:17.669Z,67.90
2019-02-14T03:43:57.142Z,67.80
2019-02-14T03:44:37.063Z,67.80
2019-02-14T03:45:18.263Z,67.80
2019-02-14T03:45:57.814Z,67.60
2019-02-14T03:46:37.050Z,68.60
2019-02-14T03:47:16.072Z,67.70
2019-02-14T03:47:54.848Z,67.60
2019-02-14T03:48:34.360Z,67.60
2019-02-14T03:49:13.406Z,67.60
2019-02-14T03:49:52.368Z,67.60
2019-02-14T03:50:31.446Z,67.60
2019-02-14T03:51:10.579Z,67.60
2019-02-14T03:51:49.738Z,67.60
2019-02-14T03:52:28.333Z,67.50
2019-02-14T03:53:07.603Z,67.50
2019-02-14T03:53:47.073Z,67.50
2019-02-14T03:54:26.390Z,67.50
2019-02-14T03:55:05.471Z,67.50
2019-02-14T03:55:44.239Z,67.60
2019-02-14T03:56:23.083Z,67.20
2019-02-14T03:57:02.394Z,67.30
2019-02-14T03:57:41.846Z,67.40
2019-02-14T03:58:21.145Z,67.30
2019-02-14T03:59:00.208Z,67.40
2019-02-14T03:59:38.885Z,67.40
2019-02-14T04:00:18.344Z,67.30
2019-02-14T04:00:57.053Z,67.40
2019-02-14T04:01:35.709Z,67.50
2019-02-14T04:02:15.166Z,67.20
2019-02-14T04:02:53.820Z,67.30
2019-02-14T04:03:33.071Z,67.30
2019-02-14T04:04:13.179Z,67.20
2019-02-14T04:04:52.437Z,67.10
2019-02-14T04:05:31.616Z,67.10
2019-02-14T04:06:11.118Z,67.10
2019-02-14T04:06:49.922Z,67.20
2019-02-14T04:07:29.117Z,67.10
2019-02-14T04:08:07.805Z,66.90
2019-02-14T04:08:47.099Z,67.00
2019-02-14T04:09:25.749Z,67.20
2019-02-14T04:10:04.665Z,67.10
2019-02-14T04:10:43.796Z,66.90
2019-02-14T04:11:23.333Z,66.90
2019-02-14T04:12:02.475Z,66.70
2019-02-14T04:12:42.028Z,66.80
2019-02-14T04:13:21.492Z,66.80
2019-02-14T04:14:00.760Z,67.10
2019-02-14T04:14:40.161Z,66.90
2019-02-14T04:15:19.432Z,66.90
2019-02-14T04:15:59.057Z,66.70
2019-02-14T04:16:37.727Z,66.80
2019-02-14T04:17:16.505Z,66.80
2019-02-14T04:17:55.116Z,66.60
2019-02-14T04:18:33.823Z,67.50
2019-02-14T04:19:12.498Z,66.70
2019-02-14T04:19:51.334Z,66.80
2019-02-14T04:20:30.158Z,66.40
2019-02-14T04:21:08.969Z,66.70
2019-02-14T04:21:47.632Z,66.50
2019-02-14T04:22:26.311Z,66.50
2019-02-14T04:23:05.335Z,66.30
2019-02-14T04:23:44.063Z,66.60
2019-02-14T04:24:22.776Z,66.30
2019-02-14T04:25:02.271Z,66.20
2019-02-14T04:25:40.915Z,66.40
2019-02-14T04:26:19.552Z,66.10
2019-02-14T04:26:58.278Z,66.20
2019-02-14T04:27:37.889Z,66.10
2019-02-14T04:28:17.132Z,66.10
2019-02-14T04:28:55.795Z,66.10
2019-02-14T04:29:34.573Z,66.00
2019-02-14T04:30:13.972Z,66.30
2019-02-14T04:30:52.689Z,66.30
2019-02-14T04:31:31.466Z,67.00
2019-02-14T04:32:10.256Z,66.40
2019-02-14T04:32:48.990Z,66.10
2019-02-14T04:33:27.758Z,66.10
2019-02-14T04:34:06.543Z,65.70
2019-02-14T04:34:45.286Z,65.70
2019-02-14T04:35:24.091Z,66.00
2019-02-14T04:36:02.783Z,65.70
2019-02-14T04:36:41.478Z,65.90
2019-02-14T04:37:20.130Z,65.60
2019-02-14T04:37:58.983Z,65.90
2019-02-14T04:38:37.694Z,65.50
2019-02-14T04:39:16.390Z,66.00
2019-02-14T04:39:55.083Z,65.90
2019-02-14T04:40:33.903Z,65.60
2019-02-14T04:41:12.660Z,65.70
2019-02-14T04:41:52.020Z,65.40
2019-02-14T04:42:30.865Z,65.70
2019-02-14T04:43:10.142Z,65.30
2019-02-14T04:43:48.890Z,65.60
2019-02-14T04:44:27.658Z,65.40
2019-02-14T04:45:06.749Z,65.60
2019-02-14T04:45:45.394Z,65.30
2019-02-14T04:46:24.382Z,65.40
2019-02-14T04:47:03.064Z,65.50
2019-02-14T04:47:41.685Z,65.40
2019-02-14T04:48:21.124Z,65.10
2019-02-14T04:48:59.877Z,65.30
2019-02-14T04:49:39.319Z,65.50
2019-02-14T04:50:17.958Z,65.30
2019-02-14T04:50:56.628Z,65.20
2019-02-14T04:51:35.844Z,66.30
2019-02-14T04:52:15.021Z,65.40
2019-02-14T04:52:53.651Z,65.30
2019-02-14T04:53:32.429Z,65.20
2019-02-14T04:54:11.075Z,65.20
2019-02-14T04:54:50.163Z,65.10
2019-02-14T04:55:28.901Z,65.10
2019-02-14T04:56:07.528Z,65.10
2019-02-14T04:56:46.665Z,65.20
2019-02-14T04:57:26.137Z,65.00
2019-02-14T04:58:05.495Z,65.00
2019-02-14T04:58:44.902Z,65.00
2019-02-14T04:59:24.574Z,64.80
2019-02-14T05:00:03.778Z,64.80
2019-02-14T05:00:42.922Z,64.80
2019-02-14T05:01:21.698Z,65.00
2019-02-14T05:02:00.403Z,65.10
2019-02-14T05:02:39.049Z,65.10
2019-02-14T05:03:17.805Z,65.10
2019-02-14T05:03:57.582Z,64.90
2019-02-14T05:04:36.376Z,64.80
2019-02-14T05:05:15.526Z,64.90
2019-02-14T05:05:54.263Z,64.90
2019-02-14T05:06:33.601Z,65.00
2019-02-14T05:07:12.991Z,64.80
2019-02-14T05:07:51.926Z,64.70
2019-02-14T05:08:30.649Z,64.60
2019-02-14T05:09:12.202Z,64.60
2019-02-14T05:09:50.842Z,64.50
2019-02-14T05:10:29.542Z,64.50
2019-02-14T05:11:08.251Z,64.50
2019-02-14T05:11:46.985Z,64.60
2019-02-14T05:12:26.489Z,64.70
2019-02-14T05:13:05.190Z,64.80
2019-02-14T05:13:44.363Z,64.90
2019-02-14T05:14:23.736Z,65.70
2019-02-14T05:15:02.682Z,64.80
2019-02-14T05:15:41.343Z,64.60
2019-02-14T05:16:20.809Z,64.60
2019-02-14T05:16:59.529Z,64.60
2019-02-14T05:17:38.303Z,64.50
2019-02-14T05:18:17.019Z,64.60
2019-02-14T05:18:55.572Z,64.90
2019-02-14T05:19:34.297Z,64.80
2019-02-14T05:20:13.698Z,64.90
2019-02-14T05:20:52.510Z,64.70
2019-02-14T05:21:31.255Z,64.60
2019-02-14T05:22:09.997Z,64.60
2019-02-14T05:22:48.734Z,64.60
2019-02-14T05:23:27.877Z,64.60
2019-02-14T05:24:06.831Z,64.60
2019-02-14T05:24:46.275Z,64.10
2019-02-14T05:25:24.994Z,64.20
2019-02-14T05:26:03.684Z,64.20
2019-02-14T05:26:42.303Z,64.20
2019-02-14T05:27:21.012Z,64.20
2019-02-14T05:27:59.842Z,64.30
2019-02-14T05:28:39.146Z,64.20
2019-02-14T05:29:18.269Z,64.30
2019-02-14T05:29:57.616Z,64.30
2019-02-14T05:30:37.047Z,64.40
2019-02-14T05:31:16.087Z,64.60
2019-02-14T05:31:55.640Z,64.60
2019-02-14T05:32:35.122Z,64.60
2019-02-14T05:33:14.574Z,64.70
2019-02-14T05:33:53.598Z,64.70
2019-02-14T05:34:32.259Z,64.50
2019-02-14T05:35:11.494Z,64.50
2019-02-14T05:35:50.332Z,64.60
2019-02-14T05:36:29.176Z,64.60
2019-02-14T05:37:08.912Z,64.60
2019-02-14T05:37:48.407Z,64.40
2019-02-14T05:38:27.676Z,64.40
2019-02-14T05:39:07.178Z,64.40
2019-02-14T05:39:46.796Z,64.50
2019-02-14T05:40:26.094Z,64.40
2019-02-14T05:41:06.050Z,64.40
2019-02-14T05:41:45.466Z,64.30
2019-02-14T05:42:25.156Z,64.20
2019-02-14T05:43:07.010Z,64.20
2019-02-14T05:43:45.586Z,64.40
2019-02-14T05:44:25.518Z,64.40
2019-02-14T05:45:05.458Z,64.50
2019-02-14T05:45:45.487Z,64.40
2019-02-14T05:46:24.132Z,64.40
2019-02-14T05:47:03.481Z,64.20
2019-02-14T05:47:43.163Z,64.20
2019-02-14T05:48:22.065Z,64.50
2019-02-14T05:49:01.150Z,64.30
2019-02-14T05:49:40.223Z,64.30
2019-02-14T05:50:19.399Z,64.40
2019-02-14T05:50:58.016Z,64.30
2019-02-14T05:51:36.912Z,64.50
2019-02-14T05:52:15.744Z,64.60
2019-02-14T05:52:54.961Z,64.40
2019-02-14T05:53:33.750Z,64.50
2019-02-14T05:54:12.526Z,64.60
2019-02-14T05:54:51.541Z,64.50
2019-02-14T05:55:30.250Z,64.50
2019-02-14T05:56:08.955Z,64.30
2019-02-14T05:56:48.229Z,64.30
2019-02-14T05:57:27.436Z,64.30
2019-02-14T05:58:06.903Z,64.40
2019-02-14T05:58:45.940Z,64.40
2019-02-14T05:59:24.580Z,64.40
2019-02-14T06:00:03.323Z,64.20
2019-02-14T06:00:42.078Z,64.20
2019-02-14T06:01:21.233Z,64.00
2019-02-14T06:02:00.370Z,64.00
2019-02-14T06:02:40.530Z,64.10
2019-02-14T06:03:19.950Z,64.00
2019-02-14T06:03:59.404Z,64.90
2019-02-14T06:04:43.380Z,64.30
2019-02-14T06:05:27.807Z,64.20
2019-02-14T06:06:06.923Z,64.20
2019-02-14T06:07:00.924Z,64.30
2019-02-14T06:07:49.259Z,64.40
2019-02-14T06:08:30.565Z,64.20
2019-02-14T06:09:09.660Z,64.00
2019-02-14T06:09:48.753Z,63.90
2019-02-14T06:10:27.994Z,63.90
2019-02-14T06:11:06.969Z,63.90
2019-02-14T06:11:46.164Z,64.10
2019-02-14T06:12:24.889Z,64.10
2019-02-14T06:13:04.485Z,64.10
2019-02-14T06:13:43.307Z,64.00
2019-02-14T06:14:22.566Z,63.90
2019-02-14T06:15:02.005Z,63.80
2019-02-14T06:15:40.696Z,63.70
2019-02-14T06:16:19.418Z,63.70
2019-02-14T06:16:59.159Z,63.90
2019-02-14T06:17:37.865Z,64.10
2019-02-14T06:18:16.708Z,64.00
2019-02-14T06:18:55.426Z,63.90
2019-02-14T06:19:34.393Z,63.70
2019-02-14T06:20:13.568Z,63.70
2019-02-14T06:20:52.624Z,63.80
2019-02-14T06:21:32.419Z,64.00
2019-02-14T06:22:11.729Z,64.00
2019-02-14T06:22:51.151Z,63.60
2019-02-14T06:23:30.850Z,63.60
2019-02-14T06:24:09.587Z,63.70
2019-02-14T06:24:48.261Z,63.60
2019-02-14T06:25:26.936Z,63.80
2019-02-14T06:26:06.506Z,63.70
2019-02-14T06:26:45.210Z,63.80
2019-02-14T06:27:24.323Z,63.70
2019-02-14T06:28:09.638Z,63.70
2019-02-14T06:28:48.242Z,63.60
2019-02-14T06:29:26.993Z,63.50
2019-02-14T06:30:05.724Z,63.50
2019-02-14T06:30:44.867Z,63.60
2019-02-14T06:31:24.138Z,63.60
2019-02-14T06:32:02.781Z,63.90
2019-02-14T06:32:44.355Z,63.80
2019-02-14T06:33:24.144Z,63.60
2019-02-14T06:34:02.981Z,63.30
2019-02-14T06:34:42.333Z,63.20
2019-02-14T06:35:22.198Z,63.40
2019-02-14T06:36:00.931Z,63.50
2019-02-14T06:36:40.255Z,63.60
2019-02-14T06:37:18.898Z,63.80
2019-02-14T06:37:57.685Z,63.80
2019-02-14T06:38:36.564Z,63.60
2019-02-14T06:39:15.478Z,63.50
2019-02-14T06:39:54.526Z,63.60
2019-02-14T06:40:34.723Z,63.50
2019-02-14T06:41:13.481Z,63.40
2019-02-14T06:41:52.088Z,63.50
2019-02-14T06:42:31.290Z,63.60
2019-02-14T06:43:10.021Z,63.50
2019-02-14T06:43:48.721Z,63.60
2019-02-14T06:44:27.375Z,63.60
2019-02-14T06:45:06.652Z,63.60
2019-02-14T06:45:45.670Z,63.60
2019-02-14T06:46:24.726Z,63.20
2019-02-14T06:47:04.789Z,63.30
2019-02-14T06:47:44.197Z,63.50
2019-02-14T06:48:23.287Z,63.50
2019-02-14T06:49:02.491Z,63.70
2019-02-14T06:49:41.098Z,63.40
2019-02-14T06:50:19.798Z,63.30
2019-02-14T06:50:59.169Z,63.20
2019-02-14T06:51:37.998Z,63.10
2019-02-14T06:52:17.138Z,63.30
2019-02-14T06:52:56.193Z,63.10
2019-02-14T06:53:35.469Z,63.00
2019-02-14T06:54:14.969Z,63.10
2019-02-14T06:54:53.977Z,63.20
2019-02-14T06:55:33.409Z,63.20
2019-02-14T06:56:13.141Z,63.60
2019-02-14T06:56:52.394Z,63.00
2019-02-14T06:57:31.133Z,62.90
2019-02-14T06:58:09.926Z,63.00
2019-02-14T06:58:48.687Z,63.00
2019-02-14T06:59:27.414Z,63.00
2019-02-14T07:00:06.246Z,63.10
2019-02-14T07:00:45.901Z,63.00
2019-02-14T07:01:24.774Z,63.10
2019-02-14T07:02:04.086Z,63.20
2019-02-14T07:02:43.584Z,63.40
2019-02-14T07:03:23.534Z,64.20
2019-02-14T07:04:02.892Z,63.20
2019-02-14T07:04:42.225Z,63.10
2019-02-14T07:05:20.957Z,63.20
2019-02-14T07:05:59.670Z,63.30
2019-02-14T07:06:38.431Z,63.10
2019-02-14T07:07:18.924Z,62.90
2019-02-14T07:07:57.238Z,62.80
2019-02-14T07:08:36.272Z,62.90
2019-02-14T07:09:15.519Z,63.10
2019-02-14T07:09:54.877Z,63.10
2019-02-14T07:10:34.498Z,63.00
2019-02-14T07:11:13.452Z,62.90
2019-02-14T07:11:52.685Z,62.80
2019-02-14T07:12:31.421Z,62.90
2019-02-14T07:13:10.445Z,63.20
2019-02-14T07:13:49.209Z,62.90
2019-02-14T07:14:27.880Z,63.10
2019-02-14T07:15:06.582Z,63.20
2019-02-14T07:15:45.219Z,63.20
2019-02-14T07:16:24.066Z,62.90
2019-02-14T07:17:03.408Z,62.90
2019-02-14T07:17:42.557Z,63.10
2019-02-14T07:18:21.212Z,62.90
2019-02-14T07:18:59.960Z,62.90
2019-02-14T07:19:38.962Z,62.80
2019-02-14T07:20:18.119Z,62.80
2019-02-14T07:20:56.853Z,63.00
2019-02-14T07:21:36.084Z,63.00
2019-02-14T07:22:14.851Z,62.90
2019-02-14T07:22:53.583Z,62.80
2019-02-14T07:23:32.822Z,62.80
2019-02-14T07:24:11.478Z,62.80
2019-02-14T07:24:50.620Z,62.80
2019-02-14T07:25:29.651Z,62.80
2019-02-14T07:26:08.651Z,62.80
2019-02-14T07:26:47.723Z,62.70
2019-02-14T07:27:27.114Z,62.70
2019-02-14T07:28:06.577Z,62.60
2019-02-14T07:28:45.619Z,62.30
2019-02-14T07:29:25.013Z,62.60
2019-02-14T07:30:03.737Z,62.60
2019-02-14T07:30:42.906Z,62.60
2019-02-14T07:31:21.579Z,62.60
2019-02-14T07:32:00.326Z,62.60
2019-02-14T07:32:39.198Z,62.50
2019-02-14T07:33:18.122Z,62.60
2019-02-14T07:33:57.107Z,62.50
2019-02-14T07:34:36.197Z,62.50
2019-02-14T07:35:15.861Z,62.40
2019-02-14T07:35:54.406Z,62.40
2019-02-14T07:36:33.079Z,62.40
2019-02-14T07:37:12.050Z,62.50
2019-02-14T07:37:51.208Z,62.50
2019-02-14T07:38:29.883Z,62.50
2019-02-14T07:39:11.053Z,62.30
2019-02-14T07:39:49.895Z,63.20
2019-02-14T07:40:29.732Z,62.50
2019-02-14T07:41:10.064Z,62.50
2019-02-14T07:41:48.840Z,62.40
2019-02-14T07:42:28.560Z,62.40
2019-02-14T07:43:07.694Z,62.40
2019-02-14T07:43:46.374Z,62.30
2019-02-14T07:44:27.009Z,62.30
2019-02-14T07:45:06.420Z,62.30
2019-02-14T07:45:46.221Z,62.40
2019-02-14T07:46:25.598Z,62.30
2019-02-14T07:47:04.878Z,62.20
2019-02-14T07:47:43.526Z,62.40
2019-02-14T07:48:22.209Z,62.20
2019-02-14T07:49:00.839Z,62.10
2019-02-14T07:49:40.021Z,62.20
2019-02-14T07:50:18.740Z,62.20
2019-02-14T07:50:58.198Z,62.10
2019-02-14T07:51:37.310Z,62.10
2019-02-14T07:52:16.130Z,62.10
2019-02-14T07:52:55.482Z,62.20
2019-02-14T07:53:34.755Z,62.20
2019-02-14T07:54:13.659Z,62.20
2019-02-14T07:54:52.588Z,62.20
2019-02-14T07:55:31.317Z,62.00
2019-02-14T07:56:10.066Z,62.00
2019-02-14T07:56:49.141Z,62.00
2019-02-14T07:57:28.279Z,61.90
2019-02-14T07:58:07.532Z,62.70
2019-02-14T07:58:46.845Z,62.00
2019-02-14T07:59:26.354Z,62.00
2019-02-14T08:00:05.633Z,61.80
2019-02-14T08:00:46.614Z,61.80
2019-02-14T08:01:25.972Z,61.80
2019-02-14T08:02:04.665Z,61.90
2019-02-14T08:02:43.318Z,61.90
2019-02-14T08:03:22.002Z,61.90
2019-02-14T08:04:00.689Z,62.00
2019-02-14T08:04:39.418Z,62.00
2019-02-14T08:05:18.147Z,61.90
2019-02-14T08:05:56.955Z,61.70
2019-02-14T08:06:36.223Z,61.70
2019-02-14T08:07:15.250Z,61.90
2019-02-14T08:07:53.967Z,61.90
2019-02-14T08:08:32.789Z,61.90
2019-02-14T08:09:11.730Z,61.70
2019-02-14T08:09:51.449Z,61.70
2019-02-14T08:10:30.540Z,61.70
2019-02-14T08:11:09.916Z,61.70
2019-02-14T08:11:48.594Z,61.70
2019-02-14T08:12:27.393Z,61.70
2019-02-14T08:13:06.094Z,61.70
2019-02-14T08:13:45.391Z,61.70
2019-02-14T08:14:24.109Z,61.60
2019-02-14T08:15:02.905Z,61.60
2019-02-14T08:15:41.890Z,61.60
2019-02-14T08:16:21.329Z,61.60
2019-02-14T08:17:00.840Z,61.50
2019-02-14T08:17:40.355Z,61.60
2019-02-14T08:18:19.456Z,61.90
2019-02-14T08:19:00.125Z,62.50
2019-02-14T08:19:38.989Z,61.60
2019-02-14T08:20:17.782Z,61.60
2019-02-14T08:20:56.638Z,61.60
2019-02-14T08:21:35.328Z,61.60
2019-02-14T08:22:14.050Z,61.70
2019-02-14T08:22:53.059Z,61.60
2019-02-14T08:23:31.826Z,61.60
2019-02-14T08:24:10.634Z,61.50
2019-02-14T08:24:49.423Z,61.50